Etusivu
METAR-TAF:

METAR-TAF

Lentoasemat :

Tozeur, Tunisia

Leveyspiiri: 33-55N, Pituuspiiri: 008-06E, korkeus merenpinnasta: 87 m

Tämänhetkinen sää

Tämä raportti tehtiin 21 minuuttia sitten, kello 14.00 UTC
Tuuli 17 kn lounaasta
Lämpötila 18°C
Kosteus 42%
Ilmanpaine 1006 hPa
Näkyvyys: 6000 m

METAR: DTTZ 281400Z 23017KT 6000 NSC 18/05 Q1006

Aika: 15:21 (14:21 UTC)

Sääennuste

Tämä raportti tehtiin 3 tuntia ja 21 minuuttia sitten, kello 11.00 UTC
Ennuste voimassa 28. päivästä klo 12 UTC - 29. päivään klo 12 UTC
Tuuli 15 kn etelästä/lounaasta
Näkyvyys: 6000 m
Muutamia pilviä 4000 ft:n korkeudessa
Todennäköisyys 30% :
Ajoittain
28. päivästä klo 12 UTC - 28. päivään klo 16 UTC
Näkyvyys: 3000 m
hiekkaa

TAF: DTTZ 281100Z 2812/2912 21015KT 6000 FEW040 PROB30 TEMPO 2812/2816 3000 SA

Säähavainnot ja -ennusteet yli 4000 lentoasemalta (METAR- ja TAF-raportit).

Käytössä olevat sääasemat on merkitty karttaan keltaisilla ja punaisilla pisteillä.

Aseta hiiri pisteen päälle nähdäksesi sääaseman nimen.

Klikkaa sitten nähdäksesi säähavainnot ja -ennusteet.

Kartan vaihtaminen: klikkaa mustalla rastilla varustettuja vihreitä pisteitä, niin voit zoomata sisään; viivalla varustettua vihreää pistettä, niin voit zoomata ulos tai vihreitä nuolia, niin pääset viereisille kartoille.


METAR-TAF: